Sheng Jia 1 — XUGG7 — position and weather

sailwx.info

Track history (hours):
 
Tides and Currents Weather Stations Pressure Air Temp Water Temp Dewpoint Dewpoint Depression Visibility Wind Speed Wind Dir Waves Ship Positions

Sheng Jia 1

Last reported at 2015-Sep-01 11:33 UTC. Time now 2015-Sep-01 12:12 UTC.
Position N 35°33' E 140°01'.

Length 73 m; draft 3.5 m.

Type: Cargo ship. MMSI: 515744000.

Date/timePositionNaut miles runAvg speedWind from/ knotsBaromVisibWave heightAir tempDewpointWater temp
2015-Sep-01 11:33N 35°33' E 140°01'0 0.0
2015-Sep-01 10:33N 35°33' E 140°01'0 0.0
2015-Sep-01 09:33N 35°33' E 140°01'0 0.0
2015-Sep-01 08:34N 35°33' E 140°01'0 0.0
2015-Sep-01 07:33N 35°33' E 140°01'0 0.0
2015-Sep-01 06:33N 35°33' E 140°01'0 0.0
2015-Sep-01 05:33N 35°33' E 140°01'0 0.0
2015-Sep-01 04:33N 35°33' E 140°01'0 0.0
2015-Sep-01 03:33N 35°33' E 140°01'0 0.0
2015-Sep-01 02:33N 35°33' E 140°01'0 0.0
2015-Sep-01 01:33N 35°33' E 140°01'0 0.0
2015-Sep-01 00:33N 35°33' E 140°01'0 0.0
2015-Aug-31 23:33N 35°33' E 140°01'0 0.0
2015-Aug-31 22:33N 35°33' E 140°01'0 0.0
2015-Aug-31 21:33N 35°33' E 140°01'0 0.0
2015-Aug-31 20:33N 35°33' E 140°01'0 0.0
2015-Aug-31 19:33N 35°33' E 140°01'0 0.0
2015-Aug-31 18:33N 35°33' E 140°01'0 0.0
2015-Aug-31 17:31N 35°33' E 140°01'0 0.0
2015-Aug-31 16:33N 35°33' E 140°01'0 0.0
2015-Aug-31 15:33N 35°33' E 140°01'0 0.0
2015-Aug-31 14:33N 35°33' E 140°01'0 0.0
2015-Aug-31 13:32N 35°33' E 140°01'0 0.0
2015-Aug-31 12:32N 35°33' E 140°01'0 0.0
2015-Aug-31 11:33N 35°33' E 140°01'0 0.0
2015-Aug-31 10:31N 35°33' E 140°01'0 0.0
2015-Aug-31 09:32N 35°33' E 140°01'0 0.0
2015-Aug-31 08:33N 35°33' E 140°01'0 0.0
2015-Aug-31 07:33N 35°33' E 140°01'0 0.0
2015-Aug-31 06:33N 35°33' E 140°01'0 0.0
2015-Aug-31 05:33N 35°33' E 140°01'0 0.0
2015-Aug-31 04:33N 35°33' E 140°01'0 0.0
2015-Aug-31 03:33N 35°33' E 140°01'0 0.0
2015-Aug-31 02:33N 35°33' E 140°01'0 0.0
2015-Aug-31 01:32N 35°33' E 140°01'0 0.0
2015-Aug-31 00:33N 35°33' E 140°01'0 0.0
2015-Aug-30 23:33N 35°33' E 140°01'0 0.0
2015-Aug-30 22:33N 35°33' E 140°01'0 0.0
2015-Aug-30 21:33N 35°33' E 140°01'0 0.0
2015-Aug-30 20:32N 35°33' E 140°01'0 0.0
2015-Aug-30 19:33N 35°33' E 140°01'0 0.0
2015-Aug-30 18:33N 35°33' E 140°01'0 0.0
2015-Aug-30 17:33N 35°33' E 140°01'0 0.0
2015-Aug-30 16:33N 35°33' E 140°01'0 0.0
2015-Aug-30 15:32N 35°33' E 140°01'0 0.3
2015-Aug-30 14:33N 35°33' E 140°01'9 8.9
2015-Aug-30 13:33N 35°28' E 139°52'9 8.7
2015-Aug-30 12:33N 35°22' E 139°45'8 7.8
2015-Aug-30 11:33N 35°14' E 139°47'9 8.9
2015-Aug-30 10:33N 35°06' E 139°42'14 9.8
2015-Aug-30 09:07N 34°57' E 139°29'  
2015-Aug-27 11:27N 33°47' E 130°08'11 9.1
2015-Aug-27 10:12N 33°42' E 129°56'401 8.7
2015-Aug-25 12:20N 30°42' E 122°53'6 8.0
2015-Aug-25 11:33N 30°41' E 122°46'37 1.1
2015-Aug-24 00:28N 31°03' E 122°10'8 8.6
2015-Aug-23 23:33N 31°05' E 122°02'9 8.8
2015-Aug-23 22:33N 31°09' E 121°53'8 8.3
2015-Aug-23 21:33N 31°15' E 121°46'8 8.3
2015-Aug-23 20:33N 31°21' E 121°39'9 9.1
2015-Aug-23 19:33N 31°26' E 121°30'9 8.8
2015-Aug-23 18:33N 31°31' E 121°22'1111.1
2015-Aug-23 17:33N 31°39' E 121°13'1111.4
2015-Aug-23 16:33N 31°46' E 121°02'10 9.9
2015-Aug-23 15:32N 31°53' E 120°53'1010.1
2015-Aug-23 14:33N 32°01' E 120°47'1110.2
2015-Aug-23 13:29N 32°01' E 120°34'9 8.2
2015-Aug-23 12:21N 31°60' E 120°23'  
Track history (hours):
 
Tides and Currents Weather Stations Pressure Air Temp Water Temp Dewpoint Dewpoint Depression Visibility Wind Speed Wind Dir Waves Ship Positions

Sheng Jia 1

Last reported at 2015-Sep-01 11:33 UTC. Time now 2015-Sep-01 12:12 UTC.
Position N 35°33' E 140°01'.

Length 73 m; draft 3.5 m.

Type: Cargo ship. MMSI: 515744000.

Date/timePositionNaut miles runAvg speedWind from/ knotsBaromVisibWave heightAir tempDewpointWater temp
2015-Sep-01 11:33N 35°33' E 140°01'0 0.0
2015-Sep-01 10:33N 35°33' E 140°01'0 0.0
2015-Sep-01 09:33N 35°33' E 140°01'0 0.0
2015-Sep-01 08:34N 35°33' E 140°01'0 0.0
2015-Sep-01 07:33N 35°33' E 140°01'0 0.0
2015-Sep-01 06:33N 35°33' E 140°01'0 0.0
2015-Sep-01 05:33N 35°33' E 140°01'0 0.0
2015-Sep-01 04:33N 35°33' E 140°01'0 0.0
2015-Sep-01 03:33N 35°33' E 140°01'0 0.0
2015-Sep-01 02:33N 35°33' E 140°01'0 0.0
2015-Sep-01 01:33N 35°33' E 140°01'0 0.0
2015-Sep-01 00:33N 35°33' E 140°01'0 0.0
2015-Aug-31 23:33N 35°33' E 140°01'0 0.0
2015-Aug-31 22:33N 35°33' E 140°01'0 0.0
2015-Aug-31 21:33N 35°33' E 140°01'0 0.0
2015-Aug-31 20:33N 35°33' E 140°01'0 0.0
2015-Aug-31 19:33N 35°33' E 140°01'0 0.0
2015-Aug-31 18:33N 35°33' E 140°01'0 0.0
2015-Aug-31 17:31N 35°33' E 140°01'0 0.0
2015-Aug-31 16:33N 35°33' E 140°01'0 0.0
2015-Aug-31 15:33N 35°33' E 140°01'0 0.0
2015-Aug-31 14:33N 35°33' E 140°01'0 0.0
2015-Aug-31 13:32N 35°33' E 140°01'0 0.0
2015-Aug-31 12:32N 35°33' E 140°01'0 0.0
2015-Aug-31 11:33N 35°33' E 140°01'0 0.0
2015-Aug-31 10:31N 35°33' E 140°01'0 0.0
2015-Aug-31 09:32N 35°33' E 140°01'0 0.0
2015-Aug-31 08:33N 35°33' E 140°01'0 0.0
2015-Aug-31 07:33N 35°33' E 140°01'0 0.0
2015-Aug-31 06:33N 35°33' E 140°01'0 0.0
2015-Aug-31 05:33N 35°33' E 140°01'0 0.0
2015-Aug-31 04:33N 35°33' E 140°01'0 0.0
2015-Aug-31 03:33N 35°33' E 140°01'0 0.0
2015-Aug-31 02:33N 35°33' E 140°01'0 0.0
2015-Aug-31 01:32N 35°33' E 140°01'0 0.0
2015-Aug-31 00:33N 35°33' E 140°01'0 0.0
2015-Aug-30 23:33N 35°33' E 140°01'0 0.0
2015-Aug-30 22:33N 35°33' E 140°01'0 0.0
2015-Aug-30 21:33N 35°33' E 140°01'0 0.0
2015-Aug-30 20:32N 35°33' E 140°01'0 0.0
2015-Aug-30 19:33N 35°33' E 140°01'0 0.0
2015-Aug-30 18:33N 35°33' E 140°01'0 0.0
2015-Aug-30 17:33N 35°33' E 140°01'0 0.0
2015-Aug-30 16:33N 35°33' E 140°01'0 0.0
2015-Aug-30 15:32N 35°33' E 140°01'0 0.3
2015-Aug-30 14:33N 35°33' E 140°01'9 8.9
2015-Aug-30 13:33N 35°28' E 139°52'9 8.7
2015-Aug-30 12:33N 35°22' E 139°45'8 7.8
2015-Aug-30 11:33N 35°14' E 139°47'9 8.9
2015-Aug-30 10:33N 35°06' E 139°42'14 9.8
2015-Aug-30 09:07N 34°57' E 139°29'  
2015-Aug-27 11:27N 33°47' E 130°08'11 9.1
2015-Aug-27 10:12N 33°42' E 129°56'401 8.7
2015-Aug-25 12:20N 30°42' E 122°53'6 8.0
2015-Aug-25 11:33N 30°41' E 122°46'37 1.1
2015-Aug-24 00:28N 31°03' E 122°10'8 8.6
2015-Aug-23 23:33N 31°05' E 122°02'9 8.8
2015-Aug-23 22:33N 31°09' E 121°53'8 8.3
2015-Aug-23 21:33N 31°15' E 121°46'8 8.3
2015-Aug-23 20:33N 31°21' E 121°39'9 9.1
2015-Aug-23 19:33N 31°26' E 121°30'9 8.8
2015-Aug-23 18:33N 31°31' E 121°22'1111.1
2015-Aug-23 17:33N 31°39' E 121°13'1111.4
2015-Aug-23 16:33N 31°46' E 121°02'10 9.9
2015-Aug-23 15:32N 31°53' E 120°53'1010.1
2015-Aug-23 14:33N 32°01' E 120°47'1110.2
2015-Aug-23 13:29N 32°01' E 120°34'9 8.2
2015-Aug-23 12:21N 31°60' E 120°23'  

Dump ship's entire track history